Adrian, Georgia
Current Conditions -  °F | °C
As of 5:15 AM on Sunday 23 Nov 2014 (Local Time) from KSBO Reporting Station
Heavy Rain Heavy Rain  
Wind Chill: 59°   Ceiling: 500
Heat Index: 59°   Visibility: 5mi
Dew Point: 59°   Wind: 7mph
Humidity: 100%   Direction: 40°NE
Pressure: 30.11"   Gusts: NA
Location:  32.53°N, 82.59°W
Report Text: KSBO 231015Z AUTO 04006KT 5SM +RA OVC005 15/15 A3011 RMK AO2
Loading
Personal Weather Stations






























Interactive Weather Map New forecast layout! Learn more

10-Day Weather Forecast

Advertisements
Track Severe Weather on mobile